Time;durP1;ratioP1;P1;durP2;ratioP2;P2;SDS_P1;SDS_P2;PMS_P1;PMS_P2;Temp;Humidity;BMP_temperature;BMP_pressure;BME280_temperature;BME280_humidity;BME280_pressure;Samples;Min_cycle;Max_cycle;Signal;HPM_P1;HPM_P2
2021/07/14 00:03:06;;;;;;;3.63;1.90;;;;;;;17.82;79.08;99587.81;10440666;28;20211;-62
2021/07/14 00:08:11;;;;;;;4.60;1.73;;;;;;;17.92;78.87;99574.91;10430660;28;20658;-62
2021/07/14 00:23:26;;;;;;;4.55;1.52;;;;;;;18.02;77.99;99575.47;10429678;28;20045;-62
2021/07/14 00:28:28;;;;;;;2.17;1.45;;;;;;;17.79;78.98;99582.78;10435031;28;20433;-62
2021/07/14 00:33:30;;;;;;;3.10;1.80;;;;;;;17.95;78.80;99561.06;10435625;28;20032;-62
2021/07/14 00:38:32;;;;;;;3.28;1.80;;;;;;;17.85;78.54;99580.19;10437853;28;20045;-62
2021/07/14 00:43:34;;;;;;;3.63;1.88;;;;;;;17.85;78.60;99576.69;10434314;28;20037;-62
2021/07/14 00:48:36;;;;;;;3.28;1.80;;;;;;;17.84;78.93;99569.63;10426660;28;20041;-62
2021/07/14 00:53:37;;;;;;;4.97;2.42;;;;;;;17.86;78.36;99570.25;10430427;28;20048;-61
2021/07/14 00:58:39;;;;;;;3.38;1.67;;;;;;;17.91;78.48;99562.50;10430520;28;20059;-61
2021/07/14 01:04:07;;;;;;;2.28;1.73;;;;;;;17.87;78.15;99558.47;10442159;28;20041;-61
2021/07/14 01:09:11;;;;;;;4.97;1.60;;;;;;;17.69;78.35;99561.56;10423464;28;20386;-62
2021/07/14 01:14:23;;;;;;;3.33;1.83;;;;;;;17.78;78.66;99562.28;10420400;28;20076;-61
2021/07/14 01:19:50;;;;;;;2.25;1.88;;;;;;;17.85;78.46;99555.16;10441488;28;20056;-62
2021/07/14 01:25:05;;;;;;;2.50;1.63;;;;;;;17.84;78.04;99561.53;10434049;28;20068;-62
2021/07/14 01:30:14;;;;;;;1.63;1.52;;;;;;;17.92;77.57;99564.16;10430716;28;20056;-62
2021/07/14 01:35:22;;;;;;;3.38;1.83;;;;;;;17.96;77.52;99554.69;10441891;28;20506;-65
2021/07/14 01:40:24;;;;;;;1.88;1.77;;;;;;;17.84;78.13;99550.78;10436063;28;20052;-62
2021/07/14 01:45:34;;;;;;;1.63;1.52;;;;;;;17.84;78.06;99546.22;10401770;28;20045;-63
2021/07/14 01:50:37;;;;;;;3.22;1.35;;;;;;;17.74;78.43;99561.00;10400322;28;20045;-62
2021/07/14 01:55:40;;;;;;;2.35;1.67;;;;;;;17.75;77.61;99547.34;10405797;28;20067;-62
2021/07/14 02:00:42;;;;;;;4.10;1.87;;;;;;;17.66;78.04;99529.63;10402484;28;20049;-63
2021/07/14 02:05:45;;;;;;;1.80;1.55;;;;;;;17.55;78.44;99539.03;10406326;28;20462;-62
2021/07/14 02:10:47;;;;;;;3.28;1.55;;;;;;;17.55;78.71;99538.16;10401735;28;20060;-66
2021/07/14 02:15:57;;;;;;;2.33;1.95;;;;;;;17.49;79.19;99531.69;10420418;28;20075;-62
2021/07/14 02:21:00;;;;;;;2.58;1.70;;;;;;;17.55;78.91;99525.56;10423650;28;20037;-63
2021/07/14 02:26:03;;;;;;;4.30;1.77;;;;;;;17.53;79.26;99542.91;10417928;28;20056;-63
2021/07/14 02:31:05;;;;;;;3.93;1.63;;;;;;;17.54;79.14;99545.41;10411144;28;20037;-62
2021/07/14 02:36:12;;;;;;;2.90;1.63;;;;;;;17.44;79.44;99551.09;10418161;28;20057;-62
2021/07/14 02:41:23;;;;;;;2.70;1.95;;;;;;;17.46;79.83;99561.66;10413213;28;20072;-63
2021/07/14 02:46:29;;;;;;;1.73;1.60;;;;;;;17.44;79.96;99561.00;10418608;28;20045;-63
2021/07/14 02:51:33;;;;;;;2.22;1.70;;;;;;;17.39;79.98;99552.66;10416960;28;20055;-62
2021/07/14 02:56:36;;;;;;;1.80;1.48;;;;;;;17.35;79.96;99568.31;10410851;28;20041;-62
2021/07/14 03:01:40;;;;;;;2.30;2.10;;;;;;;17.24;80.06;99569.59;10399198;28;20060;-62
2021/07/14 03:06:43;;;;;;;2.40;1.50;;;;;;;17.20;80.29;99564.78;10416460;28;20053;-62
2021/07/14 03:11:46;;;;;;;2.85;1.83;;;;;;;17.24;80.17;99563.41;10420906;28;20072;-62
2021/07/14 03:16:48;;;;;;;3.78;1.90;;;;;;;17.30;79.86;99547.34;10415434;28;20517;-62
2021/07/14 03:21:51;;;;;;;3.33;2.25;;;;;;;17.17;79.99;99539.09;10421209;28;20120;-63
2021/07/14 03:26:52;;;;;;;2.88;1.90;;;;;;;17.29;80.07;99537.63;10417295;28;20059;-62
2021/07/14 03:31:55;;;;;;;2.80;2.35;;;;;;;17.31;79.46;99538.28;10406370;28;20042;-62
2021/07/14 03:36:57;;;;;;;2.55;2.20;;;;;;;17.34;79.42;99529.00;10417923;28;20049;-62
2021/07/14 03:42:00;;;;;;;6.47;2.60;;;;;;;17.37;79.65;99542.09;10420276;28;20042;-61
2021/07/14 03:47:02;;;;;;;4.47;2.70;;;;;;;17.29;80.09;99547.53;10413589;28;20064;-62
2021/07/14 03:52:06;;;;;;;2.90;2.60;;;;;;;17.31;80.14;99551.72;10414070;28;20048;-62
2021/07/14 03:57:09;;;;;;;5.07;2.80;;;;;;;17.28;80.16;99552.09;10417748;28;20072;-61
2021/07/14 04:02:15;;;;;;;2.97;2.40;;;;;;;17.24;80.16;99561.53;10406002;28;20052;-62
2021/07/14 04:07:21;;;;;;;4.75;2.22;;;;;;;17.23;80.11;99549.09;10402074;28;20494;-62
2021/07/14 04:12:22;;;;;;;3.40;2.33;;;;;;;17.30;80.32;99543.84;10405967;28;20052;-62
2021/07/14 04:17:24;;;;;;;5.55;2.17;;;;;;;17.26;80.11;99542.53;10421450;28;20053;-62
2021/07/14 04:22:25;;;;;;;3.15;2.30;;;;;;;17.31;80.57;99540.97;10426184;28;20045;-63
2021/07/14 04:27:27;;;;;;;3.58;2.13;;;;;;;17.40;79.92;99540.84;10412905;28;20045;-62
2021/07/14 04:32:29;;;;;;;3.42;2.60;;;;;;;17.42;79.57;99560.38;10414399;28;20049;-63
2021/07/14 04:37:30;;;;;;;3.17;2.00;;;;;;;17.31;79.99;99567.88;10414081;28;20619;-63
2021/07/14 04:42:32;;;;;;;3.75;2.35;;;;;;;17.22;80.51;99563.59;10414498;28;20053;-62
2021/07/14 04:47:33;;;;;;;2.05;1.80;;;;;;;17.35;80.57;99568.31;10409840;28;20687;-63
2021/07/14 04:52:35;;;;;;;3.63;2.50;;;;;;;17.48;79.45;99573.88;10428814;28;20037;-62
2021/07/14 04:57:37;;;;;;;4.30;2.30;;;;;;;17.53;79.35;99565.25;10420784;28;20057;-62
2021/07/14 05:02:38;;;;;;;2.75;1.83;;;;;;;17.63;78.81;99570.38;10408727;28;20742;-63
2021/07/14 05:07:40;;;;;;;3.42;2.03;;;;;;;17.48;78.96;99562.31;10418928;28;20064;-63
2021/07/14 05:12:42;;;;;;;3.00;1.80;;;;;;;17.46;78.92;99564.34;10416654;28;20048;-62
2021/07/14 05:17:44;;;;;;;2.90;1.95;;;;;;;17.43;78.91;99559.31;10432192;23;21207;-60
2021/07/14 05:22:45;;;;;;;3.78;2.33;;;;;;;17.54;78.57;99566.13;10456919;28;20052;-64
2021/07/14 05:27:47;;;;;;;3.53;1.95;;;;;;;17.44;78.87;99561.00;10439521;28;20061;-62
2021/07/14 05:32:48;;;;;;;2.50;2.28;;;;;;;17.45;78.39;99566.19;10429928;28;20045;-63
2021/07/14 05:37:50;;;;;;;2.55;2.25;;;;;;;17.52;78.29;99563.63;10422353;28;20383;-63
2021/07/14 05:42:51;;;;;;;4.20;2.00;;;;;;;17.63;77.99;99565.81;10421546;28;20065;-61
2021/07/14 05:47:53;;;;;;;2.95;1.98;;;;;;;17.65;78.37;99563.81;10428039;28;20496;-64
2021/07/14 05:52:55;;;;;;;3.42;2.08;;;;;;;17.61;77.99;99564.31;10423389;28;20053;-64
2021/07/14 05:57:56;;;;;;;2.08;1.80;;;;;;;17.55;77.53;99562.38;10417375;28;20044;-60
2021/07/14 06:02:58;;;;;;;2.58;1.80;;;;;;;17.50;78.35;99576.41;10421211;28;21101;-60
2021/07/14 06:08:05;;;;;;;8.48;2.70;;;;;;;17.55;77.89;99575.84;10418129;28;20049;-62
2021/07/14 06:13:07;;;;;;;2.20;2.00;;;;;;;17.53;77.89;99567.94;10419276;28;20048;-60
2021/07/14 06:18:09;;;;;;;2.10;1.90;;;;;;;17.42;78.13;99571.13;10400248;28;20064;-60
2021/07/14 06:23:10;;;;;;;5.25;2.30;;;;;;;17.33;78.84;99583.81;10426861;28;20047;-61
2021/07/14 06:28:15;;;;;;;2.65;1.90;;;;;;;17.39;78.90;99582.25;10427380;28;20048;-61
2021/07/14 06:33:17;;;;;;;1.85;1.70;;;;;;;17.46;78.00;99581.31;10431410;28;20559;-62
2021/07/14 06:38:20;;;;;;;3.83;2.35;;;;;;;17.55;77.86;99573.16;10433010;28;21429;-62
2021/07/14 06:43:21;;;;;;;4.45;2.05;;;;;;;17.59;77.73;99575.28;10426077;28;20051;-62
2021/07/14 06:48:23;;;;;;;3.47;2.55;;;;;;;17.62;77.47;99561.44;10433692;28;20083;-62
2021/07/14 06:53:24;;;;;;;3.38;1.70;;;;;;;17.63;77.38;99544.28;10426098;28;20048;-61
2021/07/14 06:58:29;;;;;;;2.58;1.77;;;;;;;17.66;77.47;99546.59;10412756;28;20509;-62
2021/07/14 07:03:31;;;;;;;3.17;1.88;;;;;;;17.58;77.79;99535.09;10406277;28;20429;-62
2021/07/14 07:08:34;;;;;;;2.95;1.95;;;;;;;17.64;78.22;99527.13;10425542;28;20532;-62
2021/07/14 07:13:36;;;;;;;4.20;2.37;;;;;;;17.72;77.78;99525.38;10432927;28;20052;-62
2021/07/14 07:18:38;;;;;;;2.20;1.92;;;;;;;17.77;78.35;99517.56;10426423;28;20433;-62
2021/07/14 07:23:39;;;;;;;4.88;2.67;;;;;;;17.81;79.13;99516.16;10429768;28;20104;-61
2021/07/14 07:28:41;;;;;;;3.80;2.17;;;;;;;17.67;79.71;99524.06;10425300;28;20057;-62
2021/07/14 07:33:43;;;;;;;3.03;2.08;;;;;;;17.68;80.97;99551.81;10430165;28;20053;-61
2021/07/14 07:38:45;;;;;;;3.22;2.80;;;;;;;17.74;80.53;99548.34;10428388;28;20061;-61
2021/07/14 07:43:47;;;;;;;3.42;2.40;;;;;;;17.58;80.11;99564.69;10428205;28;20052;-63
2021/07/14 07:48:48;;;;;;;5.53;2.80;;;;;;;17.66;79.60;99570.81;10426036;28;20060;-61
2021/07/14 07:53:50;;;;;;;3.63;2.03;;;;;;;17.72;79.49;99568.44;10427998;28;20045;-61
2021/07/14 07:58:51;;;;;;;2.10;1.90;;;;;;;17.82;78.98;99563.59;10412501;28;20064;-60
2021/07/14 08:03:53;;;;;;;3.47;2.28;;;;;;;17.88;78.12;99541.31;10428244;28;21859;-61
2021/07/14 08:08:55;;;;;;;2.67;2.17;;;;;;;17.92;77.84;99545.31;10428351;28;20057;-61
2021/07/14 08:13:59;;;;;;;3.13;2.28;;;;;;;17.80;77.96;99541.41;10428904;28;20128;-62
2021/07/14 08:19:01;;;;;;;2.88;2.60;;;;;;;17.75;78.25;99539.28;10428110;28;20573;-61
2021/07/14 08:24:03;;;;;;;3.00;2.40;;;;;;;17.90;77.84;99563.50;10430762;28;20047;-62
2021/07/14 08:29:05;;;;;;;4.28;2.58;;;;;;;17.76;78.47;99565.19;10438951;28;20041;-61
2021/07/14 08:34:06;;;;;;;3.72;2.35;;;;;;;17.79;78.80;99558.56;10432995;28;20053;-62
2021/07/14 08:39:08;;;;;;;3.78;2.40;;;;;;;17.62;79.51;99550.69;10437028;28;20052;-60
2021/07/14 08:44:13;;;;;;;5.45;3.50;;;;;;;17.58;79.89;99554.78;10426327;28;20057;-62
2021/07/14 08:49:15;;;;;;;5.07;2.78;;;;;;;17.70;80.03;99571.31;10439868;28;20422;-61
2021/07/14 08:54:17;;;;;;;4.32;2.80;;;;;;;17.73;80.43;99580.84;10438961;28;20517;-61
2021/07/14 08:59:19;;;;;;;7.68;3.20;;;;;;;17.81;80.94;99596.91;10430960;28;20461;-62
2021/07/14 09:04:21;;;;;;;6.55;2.70;;;;;;;17.79;81.38;99607.00;10429884;28;21994;-61
2021/07/14 09:09:23;;;;;;;4.85;3.60;;;;;;;17.75;82.90;99622.72;10436459;28;20056;-60
2021/07/14 09:14:40;;;;;;;6.63;3.67;;;;;;;17.72;83.71;99638.41;10438529;28;20229;-61
2021/07/14 09:19:41;;;;;;;4.18;3.20;;;;;;;17.60;84.37;99630.78;10435463;28;20056;-65
2021/07/14 09:24:43;;;;;;;4.07;3.47;;;;;;;17.76;83.37;99628.91;10438832;28;20049;-61
2021/07/14 09:30:03;;;;;;;4.72;3.00;;;;;;;17.79;81.94;99633.94;10420040;28;20789;-62
2021/07/14 09:35:05;;;;;;;3.55;3.08;;;;;;;17.94;81.63;99621.34;10433850;28;20049;-61
2021/07/14 09:40:26;;;;;;;3.75;2.70;;;;;;;18.08;80.27;99613.44;10436938;28;20045;-62
2021/07/14 09:45:46;;;;;;;3.38;3.00;;;;;;;18.11;79.32;99619.28;10435730;28;20041;-62
2021/07/14 09:50:49;;;;;;;4.90;2.72;;;;;;;18.05;79.17;99619.22;10422033;28;20048;-62
2021/07/14 09:55:55;;;;;;;3.53;2.90;;;;;;;18.09;79.02;99612.41;10438617;28;20044;-61
2021/07/14 10:00:59;;;;;;;3.15;2.50;;;;;;;18.25;78.15;99622.97;10432001;28;20064;-62
2021/07/14 10:06:13;;;;;;;4.40;2.58;;;;;;;18.29;77.60;99616.19;10433578;28;20048;-61
2021/07/14 10:11:22;;;;;;;3.77;2.80;;;;;;;18.41;76.82;99621.09;10433920;28;20053;-62
2021/07/14 10:16:29;;;;;;;3.58;3.13;;;;;;;18.43;76.79;99624.41;10414162;28;20128;-61
2021/07/14 10:21:55;;;;;;;5.85;3.47;;;;;;;18.48;76.66;99628.22;10434466;28;20044;-63
2021/07/14 10:26:58;;;;;;;4.55;3.35;;;;;;;18.31;77.71;99624.91;10432768;28;20405;-62
2021/07/14 10:31:59;;;;;;;5.90;3.70;;;;;;;18.57;76.71;99631.63;10428686;28;20045;-62
2021/07/14 10:37:02;;;;;;;5.47;3.58;;;;;;;18.63;76.39;99641.66;10428840;28;20076;-61
2021/07/14 10:42:05;;;;;;;3.92;3.55;;;;;;;18.43;77.13;99640.59;10432207;28;20048;-61
2021/07/14 10:47:07;;;;;;;5.10;3.92;;;;;;;18.42;77.01;99638.91;10423289;28;20041;-62
2021/07/14 10:52:09;;;;;;;4.80;3.67;;;;;;;18.51;76.68;99638.63;10432638;28;20091;-62
2021/07/14 10:57:11;;;;;;;4.68;3.95;;;;;;;18.47;76.81;99640.00;10428859;28;20077;-61
2021/07/14 11:02:15;;;;;;;;;;;;;;;18.63;76.11;99647.03;10429680;28;20447;-61
2021/07/14 11:07:17;;;;;;;4.22;3.47;;;;;;;18.58;76.19;99657.53;10418300;28;19986;-62
2021/07/14 11:12:30;;;;;;;5.68;3.53;;;;;;;18.52;76.86;99656.44;10431091;28;20517;-62
2021/07/14 11:17:34;;;;;;;3.83;3.53;;;;;;;18.40;76.91;99671.44;10430866;28;20509;-62
2021/07/14 11:22:44;;;;;;;5.97;3.80;;;;;;;18.34;78.45;99666.81;10428927;22;20057;-58
2021/07/14 11:27:58;;;;;;;6.53;4.00;;;;;;;18.31;79.33;99654.53;10414443;28;20076;-56
2021/07/14 11:33:02;;;;;;;6.20;4.03;;;;;;;18.31;79.02;99643.75;10412925;28;20053;-55
2021/07/14 11:38:05;;;;;;;3.70;3.40;;;;;;;18.36;81.03;99652.13;10414615;28;20167;-55
2021/07/14 11:43:10;;;;;;;5.38;4.82;;;;;;;18.25;81.73;99652.59;10429366;28;20056;-55
2021/07/14 11:48:33;;;;;;;3.92;3.58;;;;;;;18.14;81.02;99653.91;10413137;28;21374;-55
2021/07/14 11:53:41;;;;;;;6.00;4.20;;;;;;;18.14;81.41;99659.31;10412577;28;20081;-56
2021/07/14 11:58:42;;;;;;;4.30;3.90;;;;;;;18.05;81.63;99663.13;10415499;28;20071;-56
2021/07/14 12:04:00;;;;;;;4.57;3.97;;;;;;;18.13;82.36;99667.56;10418454;28;20098;-55
2021/07/14 12:09:27;;;;;;;3.78;3.22;;;;;;;18.28;82.44;99668.38;10417747;28;20049;-55
2021/07/14 12:14:32;;;;;;;4.65;3.75;;;;;;;18.46;81.43;99656.38;10413853;28;20516;-56
2021/07/14 12:19:37;;;;;;;3.88;3.50;;;;;;;18.43;80.42;99648.66;10421979;28;20568;-56
2021/07/14 12:24:49;;;;;;;4.53;3.88;;;;;;;18.63;80.44;99633.56;10418982;28;20060;-56
2021/07/14 12:30:09;;;;;;;6.05;3.83;;;;;;;18.68;80.50;99617.63;10417849;28;20443;-57
2021/07/14 12:35:17;;;;;;;5.38;4.35;;;;;;;18.60;79.92;99614.22;10420149;28;20498;-55
2021/07/14 12:40:26;;;;;;;5.15;4.03;;;;;;;18.45;80.64;99627.75;10420332;28;20131;-56
2021/07/14 12:45:32;;;;;;;6.80;3.83;;;;;;;18.65;80.46;99606.41;10419361;28;20048;-55
2021/07/14 12:50:37;;;;;;;6.65;4.80;;;;;;;18.85;78.66;99595.81;10417131;28;20144;-55
2021/07/14 12:55:40;;;;;;;4.63;3.45;;;;;;;19.27;77.82;99586.03;10420207;28;20059;-56
2021/07/14 13:00:44;;;;;;;3.22;2.92;;;;;;;19.97;74.88;99583.34;10418253;28;20067;-56
2021/07/14 13:05:46;;;;;;;3.78;2.97;;;;;;;20.14;72.90;99579.25;10417794;28;20119;-55
2021/07/14 13:10:55;;;;;;;5.03;3.25;;;;;;;20.42;72.94;99577.47;10415109;28;20053;-54
2021/07/14 13:15:58;;;;;;;5.25;3.30;;;;;;;20.26;72.23;99570.56;10418390;28;20055;-55
2021/07/14 13:21:01;;;;;;;3.83;3.20;;;;;;;20.61;71.17;99578.53;10417803;28;20053;-56
2021/07/14 13:26:04;;;;;;;4.53;2.58;;;;;;;20.64;70.72;99551.94;10415650;28;20497;-56
2021/07/14 13:31:06;;;;;;;5.70;2.50;;;;;;;20.34;71.00;99591.97;10416729;28;20057;-55
2021/07/14 13:36:09;;;;;;;3.72;2.33;;;;;;;19.95;71.47;99596.19;10416083;28;20049;-54
2021/07/14 13:41:11;;;;;;;4.20;2.50;;;;;;;19.59;73.32;99583.72;10416462;28;20057;-55
2021/07/14 13:46:31;;;;;;;2.67;1.80;;;;;;;19.38;73.22;99590.03;10414707;28;20052;-56
2021/07/14 13:51:40;;;;;;;2.58;2.20;;;;;;;19.24;75.05;99597.22;10416100;28;20146;-56
2021/07/14 13:56:43;;;;;;;3.40;3.10;;;;;;;19.24;76.08;99610.69;10415616;28;20061;-55
2021/07/14 14:01:55;;;;;;;3.13;2.35;;;;;;;19.13;76.29;99625.56;10414729;28;20045;-55
2021/07/14 14:06:58;;;;;;;3.17;2.70;;;;;;;19.08;76.45;99607.25;10414417;28;20064;-55
2021/07/14 14:12:22;;;;;;;3.28;3.00;;;;;;;18.84;76.84;99594.13;10415718;28;20051;-55
2021/07/14 14:17:24;;;;;;;;;;;;;;;18.91;77.29;99595.06;10416269;28;20076;-55
2021/07/14 14:22:29;;;;;;;2.00;1.50;;;;;;;18.88;76.20;99584.69;10416614;28;19928;-56
2021/07/14 14:27:51;;;;;;;1.90;1.75;;;;;;;18.90;77.26;99599.63;10414993;28;20415;-55
2021/07/14 14:32:55;;;;;;;2.10;1.90;;;;;;;19.00;77.50;99604.69;10417498;28;20071;-55
2021/07/14 14:37:58;;;;;;;2.30;1.85;;;;;;;18.97;77.32;99615.03;10414467;28;20391;-55
2021/07/14 14:43:00;;;;;;;2.88;1.98;;;;;;;18.99;77.55;99608.44;10415612;28;20045;-55
2021/07/14 14:48:02;;;;;;;3.67;2.03;;;;;;;19.05;77.74;99604.97;10414760;28;20063;-56
2021/07/14 14:53:19;;;;;;;2.22;2.03;;;;;;;19.03;77.47;99604.28;10416702;28;20052;-56
2021/07/14 14:58:21;;;;;;;2.22;2.00;;;;;;;18.84;77.87;99613.00;10416542;28;20049;-56
2021/07/14 15:03:22;;;;;;;2.72;2.15;;;;;;;18.87;78.33;99626.13;10414286;28;20061;-55
2021/07/14 15:08:24;;;;;;;3.53;2.30;;;;;;;18.84;78.30;99629.19;10414903;28;20041;-55
2021/07/14 15:13:26;;;;;;;2.10;1.90;;;;;;;18.81;78.26;99619.66;10414714;28;20084;-55
2021/07/14 15:18:53;;;;;;;3.00;2.10;;;;;;;18.83;78.04;99614.06;10407375;28;20102;-57
2021/07/14 15:23:54;;;;;;;2.25;1.90;;;;;;;18.97;77.54;99601.56;10413175;28;20049;-56
2021/07/14 15:28:55;;;;;;;5.38;2.78;;;;;;;19.08;76.73;99601.03;10410512;28;20049;-56
2021/07/14 15:33:59;;;;;;;1.92;1.65;;;;;;;19.11;76.92;99599.78;10411057;28;20040;-55
2021/07/14 15:39:00;;;;;;;2.15;1.60;;;;;;;19.16;76.59;99591.97;10411092;28;20056;-56
2021/07/14 15:44:03;;;;;;;2.95;1.38;;;;;;;19.04;76.90;99602.47;10411648;28;20088;-55
2021/07/14 15:49:05;;;;;;;1.67;1.45;;;;;;;19.00;76.75;99610.09;10411143;28;20144;-56
2021/07/14 15:54:08;;;;;;;3.22;1.83;;;;;;;18.97;77.57;99615.88;10401651;28;20061;-56
2021/07/14 15:59:09;;;;;;;2.67;1.77;;;;;;;18.98;77.55;99622.94;10405731;28;20049;-57
2021/07/14 16:04:12;;;;;;;2.05;1.50;;;;;;;18.85;78.17;99612.00;10403747;28;20055;-56
2021/07/14 16:09:18;;;;;;;2.50;2.30;;;;;;;18.72;78.23;99608.16;10407019;28;20053;-57
2021/07/14 16:14:20;;;;;;;3.63;1.95;;;;;;;18.62;78.07;99596.84;10410474;28;20097;-56
2021/07/14 16:19:22;;;;;;;3.75;2.63;;;;;;;18.72;78.38;99602.75;10411587;28;20053;-57
2021/07/14 16:24:23;;;;;;;2.28;2.08;;;;;;;18.72;78.31;99591.16;10410070;28;20512;-56
2021/07/14 16:29:25;;;;;;;3.17;2.20;;;;;;;18.78;78.23;99605.69;10407443;28;20052;-56
2021/07/14 16:34:26;;;;;;;3.13;2.20;;;;;;;18.78;78.19;99611.94;10408311;28;20052;-57
2021/07/14 16:39:28;;;;;;;1.80;1.63;;;;;;;18.75;77.87;99596.16;10410038;28;20053;-57
2021/07/14 16:44:29;;;;;;;3.65;2.00;;;;;;;18.86;77.89;99603.75;10411854;28;20056;-56
2021/07/14 16:49:31;;;;;;;2.40;2.03;;;;;;;18.89;77.47;99584.47;10413690;28;20045;-56
2021/07/14 16:54:33;;;;;;;3.30;1.63;;;;;;;19.00;77.17;99599.28;10415618;28;20702;-56
2021/07/14 16:59:34;;;;;;;3.17;1.73;;;;;;;18.91;77.04;99586.97;10416860;28;20750;-56
2021/07/14 17:04:36;;;;;;;1.35;1.10;;;;;;;18.87;77.40;99599.16;10416949;28;20063;-60
2021/07/14 17:09:38;;;;;;;3.65;1.30;;;;;;;18.90;77.30;99605.03;10417392;28;20050;-59
2021/07/14 17:14:39;;;;;;;1.83;1.30;;;;;;;18.87;77.03;99599.16;10418040;28;20063;-62
2021/07/14 17:19:41;;;;;;;2.55;1.27;;;;;;;18.80;77.09;99599.09;10415816;28;20071;-62
2021/07/14 17:24:49;;;;;;;3.85;2.15;;;;;;;18.88;77.40;99617.84;10452602;22;20069;-61
2021/07/14 17:29:51;;;;;;;1.60;1.20;;;;;;;18.93;76.96;99597.56;10452737;28;20432;-61
2021/07/14 17:34:53;;;;;;;2.65;1.70;;;;;;;18.87;77.08;99591.94;10459108;28;20064;-61
2021/07/14 17:39:54;;;;;;;2.28;1.20;;;;;;;18.84;77.49;99596.84;10441189;28;20075;-60
2021/07/14 17:44:56;;;;;;;3.97;1.83;;;;;;;18.78;77.74;99593.06;10443901;28;20484;-61
2021/07/14 17:49:58;;;;;;;1.65;1.38;;;;;;;18.84;77.63;99586.06;10460341;28;20044;-61
2021/07/14 17:54:59;;;;;;;1.67;1.33;;;;;;;18.78;77.22;99586.81;10443771;28;20056;-62
2021/07/14 18:00:01;;;;;;;1.70;1.27;;;;;;;18.66;78.21;99571.19;10458941;28;20521;-61
2021/07/14 18:05:05;;;;;;;2.55;1.38;;;;;;;18.70;77.90;99571.63;10458321;28;20131;-62
2021/07/14 18:10:08;;;;;;;;;;;;;;;18.69;78.23;99564.56;10457842;28;20292;-62
2021/07/14 18:15:12;;;;;;;2.25;1.67;;;;;;;18.68;78.00;99558.34;10446517;28;19925;-62
2021/07/14 18:20:17;;;;;;;3.50;1.40;;;;;;;18.57;77.57;99556.19;10459160;28;20044;-60
2021/07/14 18:25:18;;;;;;;;;;;;;;;18.61;77.92;99552.03;10446321;28;20143;-61
2021/07/14 18:30:22;;;;;;;1.65;0.95;;;;;;;18.53;78.30;99552.19;10452900;28;19931;-61
2021/07/14 18:35:24;;;;;;;1.25;1.00;;;;;;;18.53;77.76;99554.88;10457948;28;20047;-62
2021/07/14 18:40:28;;;;;;;1.05;0.75;;;;;;;18.51;77.27;99562.31;10457510;28;20555;-61
2021/07/14 18:45:29;;;;;;;;;;;;;;;18.54;77.22;99567.34;10458375;28;20047;-61
2021/07/14 18:50:31;;;;;;;1.27;0.65;;;;;;;18.51;76.83;99570.38;10455885;28;20017;-64
2021/07/14 18:55:33;;;;;;;1.05;0.55;;;;;;;18.40;77.21;99562.84;10459604;28;20048;-61
2021/07/14 19:00:35;;;;;;;1.80;0.82;;;;;;;18.35;77.70;99561.53;10455830;28;20049;-60
2021/07/14 19:05:37;;;;;;;1.10;0.77;;;;;;;18.38;77.85;99563.03;10457606;28;20051;-61
2021/07/14 19:10:38;;;;;;;1.58;0.70;;;;;;;18.36;78.08;99574.00;10455944;28;20055;-61
2021/07/14 19:15:40;;;;;;;1.77;0.85;;;;;;;18.31;78.17;99562.13;10454278;28;20048;-61
2021/07/14 19:20:42;;;;;;;1.02;0.85;;;;;;;18.29;78.11;99572.25;10459308;28;20083;-61
2021/07/14 19:25:44;;;;;;;0.93;0.47;;;;;;;18.26;78.32;99575.34;10454463;28;20053;-61
2021/07/14 19:30:45;;;;;;;1.40;0.80;;;;;;;18.21;78.41;99567.81;10429825;28;20123;-61
2021/07/14 19:35:47;;;;;;;1.60;0.77;;;;;;;18.13;78.62;99566.06;10454131;28;20427;-62
2021/07/14 19:40:50;;;;;;;0.82;0.57;;;;;;;18.18;78.73;99570.91;10440103;28;20048;-61
2021/07/14 19:45:51;;;;;;;1.20;0.70;;;;;;;18.11;78.85;99568.13;10455852;28;20049;-62
2021/07/14 19:50:53;;;;;;;1.13;0.82;;;;;;;18.19;78.65;99575.25;10454890;28;20048;-60
2021/07/14 19:55:56;;;;;;;0.65;0.50;;;;;;;18.20;78.43;99577.75;10456452;28;20041;-61
2021/07/14 20:00:57;;;;;;;2.25;0.65;;;;;;;18.23;78.21;99576.53;10458128;28;20602;-63
2021/07/14 20:05:59;;;;;;;0.73;0.50;;;;;;;18.25;78.24;99587.94;10455728;28;20651;-62
2021/07/14 20:11:00;;;;;;;1.55;0.70;;;;;;;18.29;78.28;99593.81;10451288;28;20049;-62
2021/07/14 20:16:02;;;;;;;1.33;0.93;;;;;;;18.26;78.04;99591.50;10429400;28;20500;-63
2021/07/14 20:21:04;;;;;;;0.60;0.52;;;;;;;18.31;77.69;99605.22;10445965;28;20062;-62
2021/07/14 20:26:05;;;;;;;2.00;0.73;;;;;;;18.27;78.09;99596.69;10459921;28;20048;-62
2021/07/14 20:31:09;;;;;;;0.88;0.60;;;;;;;18.27;77.83;99583.22;10459742;28;20052;-61
2021/07/14 20:36:11;;;;;;;0.50;0.40;;;;;;;18.21;77.79;99594.75;10459157;28;21038;-62
2021/07/14 20:41:12;;;;;;;2.95;0.70;;;;;;;18.13;78.34;99592.16;10457982;28;20040;-63
2021/07/14 20:46:14;;;;;;;0.80;0.43;;;;;;;18.15;78.39;99595.50;10461648;28;20422;-62
2021/07/14 20:51:16;;;;;;;1.25;0.30;;;;;;;18.10;78.32;99584.47;10452423;28;20049;-62
2021/07/14 20:56:18;;;;;;;0.45;0.20;;;;;;;18.10;78.47;99581.78;10462436;28;20127;-62
2021/07/14 21:01:19;;;;;;;0.70;0.20;;;;;;;18.12;78.35;99579.72;10458779;28;20036;-62
2021/07/14 21:06:21;;;;;;;2.55;0.90;;;;;;;18.01;79.02;99584.59;10451287;28;20102;-62
2021/07/14 21:11:23;;;;;;;0.20;0.10;;;;;;;17.88;80.88;99581.69;10467002;28;20043;-62
2021/07/14 21:16:25;;;;;;;2.05;0.30;;;;;;;17.76;83.38;99575.94;10467965;28;20045;-62
2021/07/14 21:21:27;;;;;;;1.33;0.52;;;;;;;17.69;84.36;99566.13;10474791;28;20068;-63
2021/07/14 21:26:29;;;;;;;0.73;0.60;;;;;;;17.73;84.67;99567.38;10469631;28;20055;-63
2021/07/14 21:31:31;;;;;;;1.60;0.70;;;;;;;17.77;85.22;99568.69;10462508;28;20192;-63
2021/07/14 21:36:32;;;;;;;0.50;0.30;;;;;;;17.69;86.50;99579.56;10470312;28;20048;-63
2021/07/14 21:41:34;;;;;;;1.92;0.40;;;;;;;17.62;87.90;99584.84;10453528;28;20056;-63
2021/07/14 21:46:37;;;;;;;0.50;0.30;;;;;;;17.71;88.12;99588.28;10470024;28;20052;-63
2021/07/14 21:51:38;;;;;;;0.45;0.30;;;;;;;17.74;87.79;99596.81;10473184;28;20127;-62
2021/07/14 21:56:40;;;;;;;0.77;0.30;;;;;;;17.76;87.81;99596.63;10464722;28;20059;-61
2021/07/14 22:01:42;;;;;;;0.73;0.40;;;;;;;17.70;88.43;99592.84;10463536;28;20055;-61
2021/07/14 22:06:47;;;;;;;0.90;0.43;;;;;;;17.74;88.97;99612.13;10464218;28;20064;-60
2021/07/14 22:11:49;;;;;;;0.55;0.30;;;;;;;17.75;88.66;99621.88;10461886;28;20050;-61
2021/07/14 22:16:51;;;;;;;0.50;0.40;;;;;;;17.75;88.81;99621.88;10466321;28;20067;-61
2021/07/14 22:21:52;;;;;;;0.52;0.30;;;;;;;17.76;88.93;99643.22;10464517;28;20068;-60
2021/07/14 22:26:55;;;;;;;0.43;0.20;;;;;;;17.75;89.20;99648.81;10459435;28;20091;-62
2021/07/14 22:31:56;;;;;;;1.40;0.35;;;;;;;17.76;89.27;99639.69;10467562;28;20143;-65
2021/07/14 22:36:59;;;;;;;1.85;0.47;;;;;;;17.79;89.48;99640.16;10471453;28;20044;-61
2021/07/14 22:42:02;;;;;;;0.80;0.57;;;;;;;17.76;89.48;99645.06;10460744;28;20049;-61
2021/07/14 22:47:04;;;;;;;1.10;0.80;;;;;;;17.80;89.29;99643.69;10467850;28;20049;-61
2021/07/14 22:52:06;;;;;;;0.68;0.63;;;;;;;17.80;89.33;99631.06;10467261;28;20045;-61
2021/07/14 22:57:07;;;;;;;1.55;0.80;;;;;;;17.86;88.96;99624.09;10465394;28;20212;-63
2021/07/14 23:02:09;;;;;;;1.35;0.60;;;;;;;17.84;89.10;99628.84;10473574;28;20045;-61
2021/07/14 23:07:14;;;;;;;0.90;0.50;;;;;;;17.78;88.85;99626.91;10462468;28;20057;-62
2021/07/14 23:12:15;;;;;;;1.17;0.50;;;;;;;17.82;88.63;99628.22;10468459;28;20040;-61
2021/07/14 23:17:17;;;;;;;2.22;0.30;;;;;;;17.82;88.55;99630.91;10444541;28;21336;-61
2021/07/14 23:27:24;;;;;;;2.90;0.85;;;;;;;17.83;88.59;99609.19;10371248;28;20054;-62
2021/07/14 23:32:26;;;;;;;1.63;0.77;;;;;;;17.80;88.74;99598.75;10376962;28;20542;-61
2021/07/14 23:37:27;;;;;;;1.33;0.50;;;;;;;17.77;88.64;99590.22;10382702;28;20049;-62
2021/07/14 23:42:29;;;;;;;1.60;0.60;;;;;;;17.69;88.38;99588.47;10371721;28;20521;-61
2021/07/14 23:47:31;;;;;;;1.33;0.40;;;;;;;17.62;89.05;99591.06;10380222;28;20564;-62
2021/07/14 23:52:33;;;;;;;1.00;0.57;;;;;;;17.69;88.77;99601.09;10381609;28;20053;-61